Weather History for KBTP - October, 2012

Change the Weather History Date:

Monday, October 15, 2012

  Actual Average Record
Temperature  
Mean Temperature 58 °F -  
Max Temperature 69 °F 58 °F 82 °F (1975)
Min Temperature 46 °F 40 °F 25 °F (1988)
Degree Days  
Heating Degree Days 8    
Growing Degree Days 8 (Base 50)    
Moisture  
Dew Point 46 °F    
Average Humidity 74    
Maximum Humidity 88    
Minimum Humidity 53    
Precipitation  
Precipitation 0.18 in - - ()
Sea Level Pressure  
Sea Level Pressure 29.79 in    
Wind  
Wind Speed 11 mph (WSW)    
Max Wind Speed 22 mph    
Max Gust Speed 31 mph    
Visibility 10 miles    
Events      
Averages and records for this station are not official NWS values.
T = Trace of Precipitation, MM = Missing Value Source: NWS Daily Summary

Daily Weather History Graph

Daily Weather History Graph

Search for Another Location

Airport or City:

Trip Planner

Search our weather history database for the weather conditions in past years. The results will help you decide how hot, cold, wet, or windy it might be!

Date:

Astronomy

Oct. 15, 2012 Rise Set
Actual Time 7:31 AM EDT 6:38 PM EDT
Civil Twilight 7:03 AM EDT 7:06 PM EDT
Nautical Twilight 6:32 AM EDT 7:38 PM EDT
Astronomical Twilight 6:00 AM EDT 8:09 PM EDT
Moon 7:40 AM EDT (10/15) 6:36 PM EDT (10/15)
Length of Visible Light 12h 02m
Length of Day
11h 07m
New Moon, 0% of the Moon is Illuminated
Oct 15
New Moon
Oct 21
First Quarter
Oct 29
Full
Nov 6
Last Quarter
Nov 13
New

Hourly Weather History & Observations

Time (EDT) Temp. Windchill Dew Point Humidity Pressure Visibility Wind Dir Wind Speed Gust Speed Precip Events Conditions
12:15 AM 69.8 °F - 51.8 °F 53% 29.72 in 10.0 mi SSW 12.7 mph 21.9 mph N/A   Mostly Cloudy
12:35 AM 69.8 °F - 51.8 °F 53% 29.71 in 10.0 mi SSW 17.3 mph 23.0 mph N/A   Mostly Cloudy
12:55 AM 69.8 °F - 51.8 °F 53% 29.71 in 10.0 mi SSW 12.7 mph 23.0 mph N/A   Mostly Cloudy
1:15 AM 69.8 °F - 51.8 °F 53% 29.70 in 10.0 mi SSW 13.8 mph 25.3 mph N/A   Overcast
1:35 AM 69.8 °F - 51.8 °F 53% 29.69 in 10.0 mi SSW 18.4 mph 31.1 mph N/A   Overcast
1:55 AM 68.0 °F - 51.8 °F 56% 29.69 in 10.0 mi SSW 21.9 mph 27.6 mph N/A   Overcast
2:15 AM 68.0 °F - 53.6 °F 60% 29.69 in 10.0 mi SSW 15.0 mph 23.0 mph N/A   Overcast
2:35 AM 68.0 °F - 53.6 °F 60% 29.68 in 10.0 mi SSW 16.1 mph 26.5 mph N/A   Mostly Cloudy
2:55 AM 66.2 °F - 53.6 °F 64% 29.67 in 10.0 mi SSW 11.5 mph 24.2 mph N/A   Mostly Cloudy
3:15 AM 66.2 °F - 53.6 °F 64% 29.67 in 10.0 mi SSW 12.7 mph 24.2 mph N/A   Overcast
3:35 AM 66.2 °F - 53.6 °F 64% 29.66 in 10.0 mi SSW 11.5 mph 20.7 mph N/A   Overcast
3:55 AM 60.8 °F - 57.2 °F 88% 29.68 in 7.0 mi WSW 16.1 mph 25.3 mph 0.08 in   Overcast
4:15 AM 60.8 °F - 55.4 °F 82% 29.69 in 5.0 mi WSW 13.8 mph 21.9 mph 0.02 in   Overcast
4:35 AM 57.2 °F - 53.6 °F 88% 29.70 in 6.0 mi WSW 10.4 mph 21.9 mph 0.06 in   Overcast
4:55 AM 57.2 °F - 53.6 °F 88% 29.70 in 10.0 mi WSW 8.1 mph - 0.06 in   Mostly Cloudy
5:15 AM 57.2 °F - 53.6 °F 88% 29.72 in 10.0 mi WSW 8.1 mph - N/A   Overcast
5:55 AM 57.2 °F - 51.8 °F 82% 29.73 in 10.0 mi SW 16.1 mph 24.2 mph N/A   Overcast
6:15 AM 55.4 °F - 48.2 °F 77% 29.73 in 10.0 mi West 10.4 mph 18.4 mph N/A   Partly Cloudy
6:35 AM 53.6 °F - 46.4 °F 77% 29.75 in 10.0 mi WSW 10.4 mph - N/A   Partly Cloudy
6:55 AM 53.6 °F - 46.4 °F 77% 29.77 in 10.0 mi WSW 9.2 mph - N/A   Mostly Cloudy
7:15 AM 53.6 °F - 46.4 °F 77% 29.77 in 10.0 mi WSW 6.9 mph - N/A   Overcast
7:35 AM 53.6 °F - 46.4 °F 77% 29.77 in 10.0 mi West 9.2 mph - N/A   Overcast
7:55 AM 53.6 °F - 44.6 °F 72% 29.77 in 10.0 mi West 5.8 mph - N/A   Overcast
8:15 AM 51.8 °F - 44.6 °F 76% 29.79 in 10.0 mi West 8.1 mph - N/A   Overcast
8:35 AM 51.8 °F - 42.8 °F 71% 29.79 in 10.0 mi West 8.1 mph 17.3 mph N/A   Overcast
8:55 AM 51.8 °F - 44.6 °F 76% 29.80 in 10.0 mi West 9.2 mph - N/A   Overcast
9:15 AM 51.8 °F - 44.6 °F 76% 29.80 in 10.0 mi West 8.1 mph - N/A   Overcast
9:35 AM 51.8 °F - 44.6 °F 76% 29.81 in 10.0 mi WNW 9.2 mph - N/A   Overcast
9:55 AM 51.8 °F - 42.8 °F 71% 29.81 in 10.0 mi West 8.1 mph - N/A   Overcast
10:15 AM 53.6 °F - 44.6 °F 72% 29.81 in 10.0 mi West 6.9 mph - N/A   Overcast
10:35 AM 53.6 °F - 44.6 °F 72% 29.81 in 10.0 mi West 4.6 mph - N/A   Overcast
10:55 AM 53.6 °F - 42.8 °F 67% 29.81 in 10.0 mi West 3.5 mph - N/A   Overcast
11:35 AM 55.4 °F - 44.6 °F 67% 29.81 in 10.0 mi WSW 11.5 mph 19.6 mph N/A   Overcast
11:55 AM 55.4 °F - 44.6 °F 67% 29.82 in 10.0 mi WSW 9.2 mph - N/A   Overcast
12:15 PM 55.4 °F - 44.6 °F 67% 29.81 in 10.0 mi SW 13.8 mph 17.3 mph N/A   Overcast
12:35 PM 55.4 °F - 44.6 °F 67% 29.81 in 10.0 mi WSW 12.7 mph - N/A   Mostly Cloudy
12:55 PM 57.2 °F - 44.6 °F 63% 29.80 in 10.0 mi WSW 10.4 mph 17.3 mph N/A   Overcast
1:15 PM 55.4 °F - 44.6 °F 67% 29.79 in 10.0 mi SW 13.8 mph 19.6 mph N/A   Overcast
1:35 PM 55.4 °F - 44.6 °F 67% 29.79 in 10.0 mi WSW 11.5 mph 19.6 mph N/A   Overcast
1:55 PM 57.2 °F - 44.6 °F 63% 29.78 in 10.0 mi WSW 11.5 mph - N/A   Overcast
2:15 PM 57.2 °F - 44.6 °F 63% 29.78 in 10.0 mi SW 11.5 mph - N/A   Mostly Cloudy
2:35 PM 55.4 °F - 44.6 °F 67% 29.78 in 10.0 mi West 9.2 mph - 0.01 in   Overcast
2:55 PM 53.6 °F - 44.6 °F 72% 29.78 in 10.0 mi West 10.4 mph - 0.01 in   Overcast
3:15 PM 55.4 °F - 46.4 °F 72% 29.78 in 10.0 mi West 12.7 mph 20.7 mph N/A   Mostly Cloudy
3:35 PM 55.4 °F - 46.4 °F 72% 29.78 in 10.0 mi WSW 15.0 mph - N/A   Scattered Clouds
3:55 PM 55.4 °F - 44.6 °F 67% 29.78 in 10.0 mi West 9.2 mph 18.4 mph N/A   Mostly Cloudy
4:15 PM 53.6 °F - 44.6 °F 72% 29.79 in 10.0 mi West 11.5 mph 21.9 mph N/A   Overcast
4:35 PM 51.8 °F - 46.4 °F 82% 29.80 in 10.0 mi West 8.1 mph - N/A   Overcast
4:55 PM 51.8 °F - 46.4 °F 82% 29.81 in 10.0 mi West 5.8 mph - N/A   Overcast
5:15 PM 50.0 °F - 44.6 °F 82% 29.81 in 7.0 mi WNW 6.9 mph - 0.02 in   Mostly Cloudy
5:35 PM 48.2 °F - 44.6 °F 87% 29.82 in 10.0 mi West 5.8 mph - 0.03 in   Overcast
5:55 PM 48.2 °F - 44.6 °F 87% 29.83 in 10.0 mi West 5.8 mph - 0.03 in   Overcast
6:15 PM 48.2 °F - 44.6 °F 87% 29.83 in 10.0 mi West 5.8 mph - N/A   Overcast
6:35 PM 48.2 °F - 44.6 °F 87% 29.84 in 10.0 mi West 10.4 mph - N/A   Mostly Cloudy
6:55 PM 48.2 °F - 44.6 °F 87% 29.84 in 10.0 mi West 8.1 mph - N/A   Overcast
7:15 PM 48.2 °F - 42.8 °F 82% 29.85 in 10.0 mi West 5.8 mph - N/A   Mostly Cloudy
7:35 PM 46.4 °F 44.3 °F 42.8 °F 87% 29.86 in 10.0 mi West 4.6 mph - N/A   Mostly Cloudy
7:55 PM 48.2 °F - 42.8 °F 82% 29.86 in 10.0 mi West 4.6 mph - N/A   Overcast
8:15 PM 48.2 °F - 42.8 °F 82% 29.87 in 10.0 mi West 4.6 mph - N/A   Overcast
8:35 PM 46.4 °F 44.3 °F 42.8 °F 87% 29.87 in 10.0 mi West 4.6 mph - N/A   Mostly Cloudy
8:55 PM 46.4 °F 44.3 °F 42.8 °F 87% 29.88 in 10.0 mi West 4.6 mph - N/A   Overcast
9:15 PM 48.2 °F - 42.8 °F 82% 29.88 in 10.0 mi West 6.9 mph - N/A   Overcast
9:35 PM 48.2 °F - 41.0 °F 76% 29.89 in 10.0 mi West 5.8 mph - N/A   Mostly Cloudy
9:55 PM 48.2 °F - 41.0 °F 76% 29.89 in 10.0 mi West 5.8 mph - N/A   Mostly Cloudy
10:15 PM 48.2 °F - 42.8 °F 82% 29.90 in 10.0 mi West 4.6 mph - N/A   Overcast
10:35 PM 48.2 °F - 42.8 °F 82% 29.90 in 10.0 mi West 4.6 mph - N/A   Overcast
10:55 PM 48.2 °F - 41.0 °F 76% 29.90 in 10.0 mi West 6.9 mph - N/A   Overcast
11:15 PM 46.4 °F 44.3 °F 41.0 °F 81% 29.90 in 10.0 mi West 4.6 mph - N/A   Overcast
11:55 PM 46.4 °F 43.5 °F 42.8 °F 87% 29.90 in 10.0 mi West 5.8 mph - N/A   Overcast